Time;durP1;ratioP1;P1;durP2;ratioP2;P2;SDS_P1;SDS_P2;PMS_P1;PMS_P2;Temp;Humidity;BMP_temperature;BMP_pressure;BME280_temperature;BME280_humidity;BME280_pressure;Samples;Min_cycle;Max_cycle;Signal;HPM_P1;HPM_P2
2022/06/23 00:02:30;;;;;;;5.55;3.53;;;17.00;99.90;;;;;;5075767;28;20091;-75
2022/06/23 00:05:04;;;;;;;5.30;3.42;;;17.00;99.90;;;;;;5075976;28;20249;-75
2022/06/23 00:07:35;;;;;;;6.03;4.13;;;17.00;99.90;;;;;;5076743;28;20060;-75
2022/06/23 00:10:23;;;;;;;5.28;3.88;;;17.00;99.90;;;;;;5059284;28;20060;-75
2022/06/23 00:12:50;;;;;;;6.53;4.60;;;17.00;99.90;;;;;;5075394;28;20087;-75
2022/06/23 00:15:19;;;;;;;6.28;4.28;;;16.90;99.90;;;;;;5076805;28;20053;-75
2022/06/23 00:17:53;;;;;;;6.32;3.63;;;16.90;99.90;;;;;;5075287;28;20087;-75
2022/06/23 00:20:32;;;;;;;7.00;4.22;;;16.90;99.90;;;;;;5075706;28;20052;-75
2022/06/23 00:23:05;;;;;;;6.35;4.45;;;16.90;99.90;;;;;;5076804;28;20127;-75
2022/06/23 00:25:43;;;;;;;6.53;4.70;;;16.90;99.90;;;;;;5076493;28;20372;-75
2022/06/23 00:28:29;;;;;;;6.03;4.18;;;16.80;99.90;;;;;;5075418;28;20059;-75
2022/06/23 00:31:03;;;;;;;6.00;4.43;;;16.80;99.90;;;;;;5091490;28;20056;-75
2022/06/23 00:33:46;;;;;;;7.55;5.30;;;16.80;99.90;;;;;;5075605;28;20516;-75
2022/06/23 00:36:34;;;;;;;7.47;4.90;;;16.90;99.90;;;;;;5074511;28;20395;-75
2022/06/23 00:39:01;;;;;;;6.40;5.03;;;16.90;99.90;;;;;;5058422;28;20044;-75
2022/06/23 00:41:35;;;;;;;9.02;4.53;;;16.90;99.90;;;;;;5075191;28;20094;-75
2022/06/23 00:44:07;;;;;;;6.35;4.40;;;16.90;99.90;;;;;;5076242;28;20480;-75
2022/06/23 00:46:48;;;;;;;8.63;5.03;;;17.00;99.90;;;;;;5075255;28;20053;-74
2022/06/23 00:49:40;;;;;;;10.48;6.00;;;16.90;99.90;;;;;;5075811;28;20556;-75
2022/06/23 00:52:22;;;;;;;6.07;4.80;;;16.90;99.90;;;;;;5075503;28;20559;-74
2022/06/23 00:54:52;;;;;;;6.43;4.55;;;16.80;99.90;;;;;;5075016;28;20041;-74
2022/06/23 00:57:22;;;;;;;7.25;5.35;;;16.90;99.90;;;;;;5074537;28;20071;-75
2022/06/23 00:59:54;;;;;;;5.50;4.72;;;16.80;99.90;;;;;;5075119;28;20083;-74
2022/06/23 01:02:44;;;;;;;9.25;5.93;;;16.80;99.90;;;;;;5075165;28;20067;-75
2022/06/23 01:05:24;;;;;;;7.07;5.13;;;16.80;99.90;;;;;;5068416;28;20052;-74
2022/06/23 01:08:04;;;;;;;7.90;5.50;;;16.80;99.90;;;;;;5075680;28;20502;-75
2022/06/23 01:10:48;;;;;;;7.22;4.75;;;16.70;99.90;;;;;;5074684;28;20139;-75
2022/06/23 01:13:17;;;;;;;9.02;5.95;;;16.60;99.90;;;;;;5075562;28;20503;-75
2022/06/23 01:15:54;;;;;;;7.78;5.22;;;16.60;99.90;;;;;;5074385;28;20044;-75
2022/06/23 01:18:21;;;;;;;7.78;5.53;;;16.60;99.90;;;;;;5073924;28;20053;-75
2022/06/23 01:21:12;;;;;;;8.27;5.22;;;16.60;99.90;;;;;;5075404;28;20080;-75
2022/06/23 01:23:59;;;;;;;7.18;5.18;;;16.60;99.90;;;;;;5074101;28;20076;-75
2022/06/23 01:26:30;;;;;;;7.20;5.47;;;16.60;99.90;;;;;;5090909;28;20193;-75
2022/06/23 01:29:12;;;;;;;8.95;5.95;;;16.60;99.90;;;;;;5074358;28;20048;-75
2022/06/23 01:31:46;;;;;;;10.30;5.70;;;16.50;99.90;;;;;;5073729;28;20412;-75
2022/06/23 01:34:33;;;;;;;7.65;5.68;;;16.50;99.90;;;;;;5074316;28;20049;-75
2022/06/23 01:37:01;;;;;;;9.25;5.82;;;16.50;99.90;;;;;;5073821;28;20388;-75
2022/06/23 01:39:38;;;;;;;7.20;5.78;;;16.40;99.90;;;;;;5073772;28;20044;-75
2022/06/23 01:42:21;;;;;;;8.57;6.35;;;16.40;99.90;;;;;;5074362;28;20048;-74
2022/06/23 01:45:04;;;;;;;9.38;6.53;;;16.40;99.90;;;;;;5074962;28;20059;-75
2022/06/23 01:47:45;;;;;;;6.97;5.70;;;16.50;99.90;;;;;;5089643;28;20044;-75
2022/06/23 01:50:13;;;;;;;8.80;6.25;;;16.50;99.90;;;;;;5074694;28;20119;-75
2022/06/23 01:52:41;;;;;;;9.50;5.97;;;16.40;99.90;;;;;;5073564;28;20055;-74
2022/06/23 01:55:29;;;;;;;7.75;6.10;;;16.30;99.90;;;;;;5074679;28;20141;-74
2022/06/23 01:58:02;;;;;;;9.68;6.10;;;16.40;99.90;;;;;;5073277;28;20052;-75
2022/06/23 02:00:28;;;;;;;9.27;6.05;;;16.30;99.90;;;;;;5074774;28;20047;-74
2022/06/23 02:03:33;;;;;;;10.70;6.20;;;16.40;99.90;;;;;;5073132;28;20037;-74
2022/06/23 02:06:23;;;;;;;8.05;6.47;;;16.30;99.90;;;;;;5090394;28;20080;-76
2022/06/23 02:09:05;;;;;;;9.05;6.30;;;16.20;99.90;;;;;;5074050;28;20063;-75
2022/06/23 02:11:48;;;;;;;9.98;6.45;;;16.20;99.90;;;;;;5074368;28;20040;-75
2022/06/23 02:14:19;;;;;;;9.18;6.90;;;16.20;99.90;;;;;;5074245;28;20556;-75
2022/06/23 02:17:10;;;;;;;10.88;6.40;;;16.20;99.90;;;;;;5074083;28;20135;-75
2022/06/23 02:19:44;;;;;;;8.75;6.53;;;16.20;99.90;;;;;;5073239;28;20052;-75
2022/06/23 02:22:34;;;;;;;9.82;6.65;;;16.10;99.90;;;;;;5074544;28;20036;-74
2022/06/23 02:25:16;;;;;;;13.38;7.78;;;16.10;99.90;;;;;;5073934;28;20052;-75
2022/06/23 02:28:02;;;;;;;8.70;6.93;;;16.20;99.90;;;;;;5056560;28;20049;-75
2022/06/23 02:30:38;;;;;;;11.95;9.32;;;16.30;99.90;;;;;;5073873;28;20052;-74
2022/06/23 02:33:15;;;;;;;10.93;7.78;;;16.30;99.90;;;;;;5073502;28;20412;-75
2022/06/23 02:35:48;;;;;;;15.00;9.40;;;16.30;99.90;;;;;;5072978;28;20044;-75
2022/06/23 02:38:41;;;;;;;12.02;9.23;;;16.20;99.90;;;;;;5074062;28;20049;-75
2022/06/23 02:41:24;;;;;;;11.60;8.85;;;16.20;99.90;;;;;;5072712;28;20052;-75
2022/06/23 02:44:20;;;;;;;13.35;9.75;;;16.20;99.90;;;;;;5056413;28;20403;-75
2022/06/23 02:46:52;;;;;;;12.18;8.77;;;16.20;99.90;;;;;;5073727;28;20368;-74
2022/06/23 02:49:41;;;;;;;12.82;8.60;;;16.20;99.90;;;;;;5073653;28;20178;-74
2022/06/23 02:52:30;;;;;;;12.18;8.75;;;16.30;99.90;;;;;;5073112;28;20052;-74
2022/06/23 02:55:40;;;;;;;11.57;8.60;;;16.20;99.90;;;;;;5072896;28;20107;-74
2022/06/23 02:58:18;;;;;;;12.57;8.95;;;16.10;99.90;;;;;;5073273;28;20410;-74
2022/06/23 03:00:44;;;;;;;10.48;8.10;;;16.10;99.90;;;;;;5072910;28;20113;-74
2022/06/23 03:03:23;;;;;;;14.00;10.27;;;16.10;99.90;;;;;;5071996;28;20053;-74
2022/06/23 03:06:06;;;;;;;13.90;8.52;;;16.00;99.90;;;;;;5072675;28;20052;-74
2022/06/23 03:09:04;;;;;;;11.95;8.10;;;16.00;99.90;;;;;;5072469;28;20399;-74
2022/06/23 03:12:00;;;;;;;10.70;8.13;;;15.90;99.90;;;;;;5072245;28;20059;-74
2022/06/23 03:14:28;;;;;;;11.63;8.23;;;15.90;99.90;;;;;;5073824;28;20055;-74
2022/06/23 03:17:18;;;;;;;11.85;8.85;;;15.80;99.90;;;;;;5072114;28;20044;-75
2022/06/23 03:20:10;;;;;;;12.32;8.48;;;15.80;99.90;;;;;;5071883;28;20105;-74
2022/06/23 03:22:45;;;;;;;12.05;8.23;;;15.70;99.90;;;;;;5055728;28;20540;-74
2022/06/23 03:25:37;;;;;;;13.13;8.07;;;15.70;99.90;;;;;;5073289;28;20044;-74
2022/06/23 03:28:25;;;;;;;18.48;10.07;;;15.80;99.90;;;;;;5047747;28;20139;-74
2022/06/23 03:31:13;;;;;;;12.50;8.75;;;15.90;99.90;;;;;;5071597;28;20503;-74
2022/06/23 03:33:53;;;;;;;12.90;9.63;;;15.90;99.90;;;;;;5073348;28;20103;-74
2022/06/23 03:36:38;;;;;;;10.77;7.93;;;16.00;99.90;;;;;;5072407;28;20122;-74
2022/06/23 03:42:14;;;;;;;11.80;9.15;;;15.90;99.90;;;;;;5071987;28;20444;-75
2022/06/23 03:44:49;;;;;;;11.75;8.82;;;15.90;99.90;;;;;;5073297;28;20048;-75
2022/06/23 03:47:18;;;;;;;12.88;8.55;;;15.80;99.90;;;;;;5073218;28;20044;-74
2022/06/23 03:49:50;;;;;;;14.25;9.55;;;15.80;99.90;;;;;;5072443;28;20049;-74
2022/06/23 03:52:22;;;;;;;13.18;8.52;;;15.90;99.90;;;;;;5073011;28;20040;-75
2022/06/23 03:55:13;;;;;;;13.95;9.20;;;15.90;99.90;;;;;;5073425;28;20083;-74
2022/06/23 03:58:03;;;;;;;12.60;8.55;;;16.00;99.90;;;;;;5071997;28;20049;-74
2022/06/23 04:00:36;;;;;;;16.35;9.45;;;15.90;99.90;;;;;;5071377;28;20052;-74
2022/06/23 04:03:23;;;;;;;11.43;8.15;;;15.90;99.90;;;;;;5088573;28;20060;-74
2022/06/23 04:05:55;;;;;;;11.13;7.57;;;16.00;99.90;;;;;;5071873;28;20044;-74
2022/06/23 04:08:28;;;;;;;11.75;8.88;;;16.00;99.90;;;;;;5072089;28;20047;-74
2022/06/23 04:10:58;;;;;;;13.65;9.43;;;16.10;99.90;;;;;;5090665;28;20488;-74
2022/06/23 04:13:33;;;;;;;13.27;9.32;;;16.00;99.90;;;;;;5076660;28;20055;-74
2022/06/23 04:16:09;;;;;;;12.43;9.07;;;16.10;99.90;;;;;;5076803;28;20044;-74
2022/06/23 04:18:39;;;;;;;13.75;9.60;;;16.20;99.90;;;;;;5075491;28;20044;-74
2022/06/23 04:21:17;;;;;;;15.23;9.80;;;16.20;99.90;;;;;;5075765;28;20056;-74
2022/06/23 04:23:49;;;;;;;13.48;9.32;;;16.20;99.90;;;;;;5075420;28;20437;-74
2022/06/23 04:26:22;;;;;;;16.30;9.70;;;16.30;99.90;;;;;;5075450;28;20036;-75
2022/06/23 04:28:53;;;;;;;16.30;10.57;;;16.30;99.90;;;;;;5075384;28;20411;-74
2022/06/23 04:31:26;;;;;;;15.98;9.82;;;16.30;99.90;;;;;;5075824;28;20453;-74
2022/06/23 04:33:54;;;;;;;14.57;10.15;;;16.40;99.90;;;;;;5075310;28;20488;-75
2022/06/23 04:36:29;;;;;;;16.45;10.90;;;16.40;99.90;;;;;;5075018;28;20049;-75
2022/06/23 04:39:16;;;;;;;16.83;9.90;;;16.40;99.90;;;;;;5076676;28;20040;-74
2022/06/23 04:41:58;;;;;;;16.25;10.25;;;16.60;99.90;;;;;;5076336;28;20045;-74
2022/06/23 04:44:30;;;;;;;14.77;9.88;;;16.70;99.90;;;;;;5075117;28;20052;-75
2022/06/23 04:47:11;;;;;;;13.98;10.07;;;16.70;99.90;;;;;;5076214;28;20097;-74
2022/06/23 04:49:43;;;;;;;17.52;10.25;;;16.80;99.90;;;;;;5076018;28;20076;-74
2022/06/23 04:52:23;;;;;;;17.38;9.82;;;16.80;99.90;;;;;;5075220;28;20045;-74
2022/06/23 04:55:02;;;;;;;19.58;11.10;;;16.90;99.90;;;;;;5075753;28;20491;-75
2022/06/23 04:57:40;;;;;;;11.50;8.85;;;17.10;99.90;;;;;;5075085;28;20083;-75
2022/06/23 05:00:06;;;;;;;14.73;9.13;;;17.10;99.90;;;;;;5075985;28;20058;-74
2022/06/23 05:02:37;;;;;;;16.85;9.90;;;17.10;99.90;;;;;;5075512;28;20077;-74
2022/06/23 05:05:19;;;;;;;17.95;10.38;;;17.10;99.90;;;;;;5075719;28;20048;-74
2022/06/23 05:07:58;;;;;;;16.92;9.70;;;17.20;99.90;;;;;;5074681;28;20391;-74
2022/06/23 05:10:30;;;;;;;14.23;9.05;;;17.30;99.90;;;;;;5074379;28;20080;-74
2022/06/23 05:13:06;;;;;;;16.23;10.25;;;17.40;99.90;;;;;;5074420;28;20052;-74
2022/06/23 05:15:58;;;;;;;15.50;9.82;;;17.50;99.90;;;;;;5075602;28;20098;-75
2022/06/23 05:18:30;;;;;;;19.48;10.43;;;17.60;99.90;;;;;;5068934;28;20058;-75
2022/06/23 05:20:58;;;;;;;14.68;10.10;;;17.70;99.90;;;;;;5075324;28;20533;-75
2022/06/23 05:24:04;;;;;;;15.70;10.43;;;17.80;99.90;;;;;;5074839;28;20050;-74
2022/06/23 05:27:27;;;;;;;17.67;11.00;;;17.90;99.90;;;;;;5074490;28;20501;-74
2022/06/23 05:29:59;;;;;;;14.75;9.00;;;18.00;99.90;;;;;;5016567;28;20045;-74
2022/06/23 05:32:35;;;;;;;16.20;10.95;;;18.00;99.90;;;;;;5032281;28;20057;-75
2022/06/23 05:35:06;;;;;;;14.13;9.70;;;18.20;99.90;;;;;;5048461;28;20056;-75
2022/06/23 05:37:34;;;;;;;20.58;10.65;;;17.90;99.90;;;;;;5074180;28;20056;-74
2022/06/23 05:40:12;;;;;;;18.17;11.00;;;18.10;99.90;;;;;;5073992;28;20052;-74
2022/06/23 05:42:42;;;;;;;14.43;9.80;;;18.30;99.90;;;;;;5073754;28;20049;-75
2022/06/23 05:45:19;;;;;;;14.05;10.05;;;18.50;99.90;;;;;;5075067;28;20051;-75
2022/06/23 05:47:45;;;;;;;14.10;9.90;;;18.60;99.90;;;;;;5073978;28;20458;-75
2022/06/23 05:50:22;;;;;;;15.15;10.63;;;18.70;99.90;;;;;;5073880;28;20060;-75
2022/06/23 05:53:06;;;;;;;14.18;10.20;;;18.80;99.90;;;;;;5074955;28;20051;-75
2022/06/23 05:55:41;;;;;;;18.50;10.70;;;18.80;99.90;;;;;;5074355;28;20080;-75
2022/06/23 05:58:13;;;;;;;18.83;10.73;;;18.90;99.90;;;;;;5074869;28;20049;-75
2022/06/23 06:00:42;;;;;;;14.98;10.35;;;18.80;99.90;;;;;;5074494;28;20447;-71
2022/06/23 06:03:32;;;;;;;14.32;10.18;;;18.90;99.90;;;;;;5074018;28;20054;-70
2022/06/23 06:06:01;;;;;;;18.77;11.45;;;19.00;99.90;;;;;;5056963;28;20056;-73
2022/06/23 06:09:35;;;;;;;17.23;12.10;;;19.00;99.90;;;;;;5074420;28;20131;-71
2022/06/23 06:11:29;;;;;;;18.40;11.13;;;19.00;99.90;;;;;;5074025;28;20056;-71
2022/06/23 06:13:56;;;;;;;15.80;11.02;;;19.10;99.90;;;;;;5074475;28;20047;-71
2022/06/23 06:16:21;;;;;;;20.98;11.48;;;19.10;99.90;;;;;;5073191;28;20052;-71
2022/06/23 06:18:48;;;;;;;18.10;10.65;;;19.20;99.90;;;;;;5074073;28;20047;-71
2022/06/23 06:21:17;;;;;;;14.88;10.15;;;19.00;99.90;;;;;;5074155;28;20127;-71
2022/06/23 06:23:48;;;;;;;20.35;12.05;;;19.30;99.90;;;;;;5074259;28;20041;-71
2022/06/23 06:26:16;;;;;;;13.20;9.60;;;19.50;99.90;;;;;;5073925;28;20192;-72
2022/06/23 06:28:43;;;;;;;15.88;10.50;;;19.50;99.90;;;;;;5073953;28;20044;-72
2022/06/23 06:31:15;;;;;;;19.60;10.75;;;19.50;99.90;;;;;;5072267;28;20094;-71
2022/06/23 06:34:51;;;;;;;16.92;10.48;;;19.70;99.90;;;;;;5072554;28;20056;-71
2022/06/23 06:37:19;;;;;;;14.48;10.60;;;19.60;99.90;;;;;;4986670;28;20097;-71
2022/06/23 06:39:56;;;;;;;14.07;9.70;;;19.60;99.90;;;;;;4992553;28;20093;-71
2022/06/23 06:42:29;;;;;;;15.15;10.45;;;19.70;99.90;;;;;;5028317;28;20566;-71
2022/06/23 06:44:59;;;;;;;18.55;10.82;;;19.80;99.90;;;;;;5073000;28;20131;-71
2022/06/23 06:47:27;;;;;;;16.58;9.90;;;20.00;99.90;;;;;;5073647;28;20048;-72
2022/06/23 06:49:54;;;;;;;17.38;10.80;;;20.10;99.90;;;;;;5056120;28;20731;-71
2022/06/23 06:52:21;;;;;;;17.75;10.73;;;20.00;99.90;;;;;;5073616;28;20036;-71
2022/06/23 06:54:52;;;;;;;17.58;10.20;;;20.10;99.90;;;;;;5073846;28;20103;-71
2022/06/23 06:57:33;;;;;;;15.30;9.20;;;20.20;99.90;;;;;;5073744;28;20087;-71
2022/06/23 07:00:07;;;;;;;16.50;9.48;;;20.30;99.90;;;;;;5073369;28;20051;-71
2022/06/23 07:02:41;;;;;;;19.05;10.80;;;20.40;99.90;;;;;;5073644;28;20132;-71
2022/06/23 07:05:22;;;;;;;14.45;8.95;;;20.50;99.90;;;;;;5073575;28;20147;-71
2022/06/23 07:07:54;;;;;;;13.75;8.43;;;20.70;99.90;;;;;;5073777;28;20127;-72
2022/06/23 07:10:22;;;;;;;11.07;7.82;;;20.80;99.90;;;;;;5073367;28;20044;-71
2022/06/23 07:13:04;;;;;;;12.95;7.78;;;20.80;99.90;;;;;;5073427;28;20794;-71
2022/06/23 07:16:01;;;;;;;14.32;7.93;;;20.90;99.90;;;;;;5073934;28;20060;-73
2022/06/23 07:18:36;;;;;;;;;;;20.80;99.90;;;;;;5072481;28;20056;-73
2022/06/23 07:21:14;;;;;;;15.75;7.28;;;20.90;99.90;;;;;;5072303;28;19971;-73
2022/06/23 07:23:45;;;;;;;11.35;6.70;;;21.00;99.90;;;;;;5073461;28;20040;-73
2022/06/23 07:26:49;;;;;;;10.95;6.78;;;21.10;99.90;;;;;;5072350;28;20059;-73
2022/06/23 07:29:25;;;;;;;12.55;7.55;;;21.10;99.90;;;;;;5060991;28;20495;-73
2022/06/23 07:32:15;;;;;;;13.23;7.13;;;21.10;99.90;;;;;;5073147;28;20056;-72
2022/06/23 07:34:57;;;;;;;11.88;7.28;;;21.00;99.90;;;;;;5072259;28;20052;-73
2022/06/23 07:37:41;;;;;;;14.63;7.95;;;21.10;99.90;;;;;;5073544;28;20055;-73
2022/06/23 07:40:11;;;;;;;10.70;7.43;;;21.20;99.90;;;;;;5073221;28;20043;-73
2022/06/23 07:42:59;;;;;;;11.23;6.90;;;21.20;99.90;;;;;;5073212;28;20545;-72
2022/06/23 07:45:36;;;;;;;13.60;7.50;;;21.40;99.90;;;;;;5074856;28;20055;-69
2022/06/23 07:48:02;;;;;;;12.00;6.80;;;21.30;99.90;;;;;;5077086;28;20426;-71
2022/06/23 07:50:29;;;;;;;19.15;7.25;;;21.60;99.90;;;;;;5078240;28;20048;-73
2022/06/23 07:52:55;;;;;;;10.90;7.07;;;21.80;99.90;;;;;;5082370;28;20083;-69
2022/06/23 07:55:26;;;;;;;10.27;7.55;;;22.00;99.90;;;;;;5077255;28;20131;-70
2022/06/23 07:57:53;;;;;;;12.75;7.55;;;22.20;99.90;;;;;;5076984;28;20071;-70
2022/06/23 08:00:19;;;;;;;21.42;8.05;;;22.10;99.90;;;;;;5076974;28;20406;-70
2022/06/23 08:03:01;;;;;;;8.82;5.75;;;22.20;99.90;;;;;;5076148;28;20190;-70
2022/06/23 08:05:34;;;;;;;10.25;5.72;;;22.30;99.90;;;;;;5076810;28;20053;-70
2022/06/23 08:08:01;;;;;;;11.25;6.90;;;22.50;99.90;;;;;;5076861;28;20111;-70
2022/06/23 08:10:30;;;;;;;12.45;6.25;;;22.50;99.90;;;;;;5075549;28;20057;-70
2022/06/23 08:13:11;;;;;;;12.55;6.60;;;22.70;99.90;;;;;;5059227;28;20051;-71
2022/06/23 08:18:48;;;;;;;12.38;6.38;;;22.80;99.90;;;;;;5076640;28;20403;-71
2022/06/23 08:21:37;;;;;;;10.02;6.10;;;22.90;99.90;;;;;;5076663;28;20047;-70
2022/06/23 08:24:15;;;;;;;7.38;5.35;;;23.10;99.90;;;;;;5075297;28;20049;-70
2022/06/23 08:26:46;;;;;;;14.35;6.18;;;23.30;99.90;;;;;;5076645;28;20052;-69
2022/06/23 08:29:14;;;;;;;10.73;6.80;;;23.40;99.90;;;;;;5076448;28;20048;-70
2022/06/23 08:31:40;;;;;;;12.18;5.75;;;23.60;99.90;;;;;;5075951;28;20197;-70
2022/06/23 08:34:07;;;;;;;9.57;5.70;;;23.80;99.90;;;;;;5076023;28;20056;-71
2022/06/23 08:36:48;;;;;;;9.90;6.03;;;24.00;99.90;;;;;;5075389;28;20048;-71
2022/06/23 08:39:35;;;;;;;8.52;5.50;;;24.20;99.90;;;;;;5076321;28;20040;-70
2022/06/23 08:42:26;;;;;;;9.68;5.78;;;24.40;99.90;;;;;;5074881;28;20045;-70
2022/06/23 08:45:04;;;;;;;8.63;5.47;;;24.40;99.90;;;;;;5076752;28;20048;-71
2022/06/23 08:47:55;;;;;;;11.50;6.43;;;24.50;99.90;;;;;;5075037;28;20403;-71
2022/06/23 08:50:44;;;;;;;8.52;5.15;;;24.50;99.90;;;;;;5075793;28;20084;-71
2022/06/23 08:53:42;;;;;;;8.57;5.88;;;24.80;99.90;;;;;;5074242;28;20074;-71
2022/06/23 08:56:27;;;;;;;17.50;6.15;;;24.80;99.90;;;;;;5073994;28;20384;-70
2022/06/23 08:59:12;;;;;;;9.07;4.90;;;24.80;99.90;;;;;;5075782;28;20051;-87
2022/06/23 09:02:16;;;;;;;10.00;4.68;;;24.30;99.90;;;;;;5058533;28;20036;-89
2022/06/23 09:05:18;;;;;;;7.55;5.20;;;24.30;99.90;;;;;;5054572;28;20137;-88
2022/06/23 09:08:13;;;;;;;8.05;5.07;;;24.20;99.90;;;;;;5061902;28;20056;-87
2022/06/23 09:11:19;;;;;;;11.23;5.53;;;24.10;99.90;;;;;;5075448;28;20056;-84
2022/06/23 09:14:21;;;;;;;7.50;4.70;;;24.20;99.90;;;;;;5050122;28;20060;-81
2022/06/23 09:17:07;;;;;;;7.18;4.63;;;24.40;99.90;;;;;;5075132;28;20044;-87
2022/06/23 09:19:53;;;;;;;9.55;4.55;;;24.50;99.90;;;;;;5057799;28;20048;-71
2022/06/23 09:22:44;;;;;;;7.90;4.80;;;25.00;99.90;;;;;;5075571;28;20086;-89
2022/06/23 09:25:31;;;;;;;7.05;4.03;;;25.50;99.90;;;;;;5075700;28;20049;-71
2022/06/23 09:28:15;;;;;;;8.15;4.22;;;25.80;99.90;;;;;;5075430;28;20087;-72
2022/06/23 09:31:04;;;;;;;7.97;4.35;;;25.80;99.90;;;;;;5074972;28;20044;-72
2022/06/23 09:33:51;;;;;;;6.65;4.15;;;26.00;99.90;;;;;;5071677;28;20131;-71
2022/06/23 09:36:36;;;;;;;7.70;4.22;;;26.20;99.90;;;;;;5074004;28;20429;-71
2022/06/23 09:39:17;;;;;;;7.35;3.90;;;26.20;99.90;;;;;;5074914;28;20550;-71
2022/06/23 09:42:04;;;;;;;7.35;3.00;;;26.30;99.90;;;;;;5075281;28;20116;-71
2022/06/23 09:44:51;;;;;;;9.85;3.20;;;26.50;99.90;;;;;;5074861;28;20487;-78
2022/06/23 09:47:39;;;;;;;6.47;3.55;;;26.70;99.90;;;;;;5091295;28;20515;-90
2022/06/23 09:50:17;;;;;;;7.53;2.95;;;26.50;99.90;;;;;;5058818;28;20044;-95
2022/06/23 09:53:04;;;;;;;4.18;2.72;;;26.30;99.90;;;;;;5073440;28;20040;-72
2022/06/23 09:55:49;;;;;;;4.43;2.90;;;26.60;99.90;;;;;;5074837;28;20049;-72
2022/06/23 09:58:32;;;;;;;7.72;2.85;;;27.10;99.90;;;;;;5074901;28;20044;-73
2022/06/23 10:01:19;;;;;;;6.75;3.28;;;27.40;99.90;;;;;;5074541;28;20044;-73
2022/06/23 10:04:04;;;;;;;8.65;2.90;;;27.60;99.90;;;;;;5074441;28;20127;-72
2022/06/23 10:07:25;;;;;;;3.42;2.53;;;27.80;99.70;;;;;;5074402;28;20044;-73
2022/06/23 10:09:53;;;;;;;6.07;2.38;;;28.10;99.90;;;;;;5051505;28;20436;-73
2022/06/23 10:12:34;;;;;;;6.53;2.60;;;28.20;99.90;;;;;;5073186;28;20101;-72
2022/06/23 10:15:24;;;;;;;3.25;2.00;;;28.20;99.40;;;;;;5073000;28;20053;-72
2022/06/23 10:17:58;;;;;;;5.72;2.15;;;28.50;99.80;;;;;;5073188;28;20087;-72
2022/06/23 10:20:42;;;;;;;5.45;2.00;;;28.90;99.20;;;;;;5074280;28;20049;-72
2022/06/23 10:23:20;;;;;;;9.25;3.03;;;29.00;99.90;;;;;;5073206;28;20503;-72
2022/06/23 10:26:17;;;;;;;5.43;2.35;;;29.20;99.50;;;;;;5074135;28;20091;-72
2022/06/23 10:29:10;;;;;;;4.72;1.90;;;29.10;99.00;;;;;;5074204;28;20044;-72
2022/06/23 10:31:58;;;;;;;4.15;2.10;;;29.30;99.10;;;;;;5073273;28;20052;-72
2022/06/23 10:34:42;;;;;;;4.45;2.10;;;29.30;98.70;;;;;;5089982;28;20091;-72
2022/06/23 10:37:38;;;;;;;5.47;2.20;;;29.40;98.60;;;;;;5075626;28;20048;-73
2022/06/23 10:40:21;;;;;;;5.28;2.10;;;29.40;98.50;;;;;;5073717;28;20049;-71
2022/06/23 10:43:08;;;;;;;5.90;2.25;;;29.40;98.40;;;;;;5074115;28;20058;-71
2022/06/23 10:45:36;;;;;;;7.10;2.20;;;29.60;98.80;;;;;;5074028;28;20044;-70
2022/06/23 10:48:59;;;;;;;6.60;2.75;;;29.80;98.70;;;;;;5073801;28;20098;-70
2022/06/23 10:51:49;;;;;;;4.75;2.00;;;29.80;98.50;;;;;;5035006;28;20040;-70
2022/06/23 10:54:27;;;;;;;3.30;1.88;;;29.80;98.70;;;;;;5018758;28;20053;-70
2022/06/23 10:57:08;;;;;;;4.20;2.22;;;30.10;99.00;;;;;;5067306;28;20057;-71
2022/06/23 10:59:48;;;;;;;7.85;2.53;;;30.40;98.40;;;;;;5073768;28;20053;-72
2022/06/23 11:02:32;;;;;;;3.53;2.33;;;30.40;98.20;;;;;;5072295;28;20106;-71
2022/06/23 11:05:20;;;;;;;6.25;2.17;;;30.40;98.50;;;;;;5074670;28;20048;-71
2022/06/23 11:08:04;;;;;;;5.22;2.28;;;30.60;99.20;;;;;;5073709;28;20051;-71
2022/06/23 11:10:57;;;;;;;4.18;2.22;;;30.70;98.80;;;;;;5073682;28;20048;-70
2022/06/23 11:13:44;;;;;;;5.15;2.35;;;30.80;98.20;;;;;;5073888;28;20099;-71
2022/06/23 11:16:13;;;;;;;5.28;2.05;;;30.70;98.30;;;;;;5072296;28;20483;-71
2022/06/23 11:19:16;;;;;;;5.18;2.17;;;30.80;98.80;;;;;;5072187;28;20048;-71
2022/06/23 11:22:09;;;;;;;7.35;2.47;;;30.60;97.90;;;;;;5072412;28;20049;-71
2022/06/23 11:24:41;;;;;;;8.07;2.17;;;30.70;98.40;;;;;;5073195;28;20056;-70
2022/06/23 11:27:12;;;;;;;2.72;1.90;;;31.20;98.30;;;;;;5072097;28;20447;-70
2022/06/23 11:30:01;;;;;;;6.63;2.92;;;31.50;98.10;;;;;;5073967;28;20442;-70
2022/06/23 11:32:27;;;;;;;4.90;1.92;;;31.50;98.10;;;;;;5069040;28;20057;-70
2022/06/23 11:34:56;;;;;;;8.20;2.10;;;31.50;98.20;;;;;;5073469;28;20060;-70
2022/06/23 11:37:30;;;;;;;4.80;2.13;;;31.40;97.50;;;;;;5072955;28;20102;-71
2022/06/23 11:40:09;;;;;;;4.47;2.10;;;31.40;98.00;;;;;;5073157;28;20527;-72
2022/06/23 11:42:55;;;;;;;4.10;2.20;;;31.70;97.60;;;;;;5073678;28;20040;-71
2022/06/23 11:45:52;;;;;;;7.20;2.03;;;31.80;97.70;;;;;;5073225;28;20061;-71
2022/06/23 11:48:33;;;;;;;7.90;2.30;;;31.70;98.10;;;;;;5073208;28;20049;-71
2022/06/23 11:51:20;;;;;;;4.68;2.10;;;31.90;97.60;;;;;;5072026;28;20052;-71
2022/06/23 11:54:02;;;;;;;3.92;1.98;;;32.10;97.60;;;;;;5073226;28;20051;-71
2022/06/23 11:56:36;;;;;;;4.05;2.10;;;32.20;97.70;;;;;;5073158;28;20079;-71
2022/06/23 11:59:23;;;;;;;9.75;2.00;;;32.30;97.20;;;;;;5073183;28;20041;-71
2022/06/23 12:01:49;;;;;;;4.70;2.10;;;32.50;97.10;;;;;;5072667;28;20048;-71
2022/06/23 12:04:36;;;;;;;7.15;2.13;;;32.70;97.80;;;;;;5072903;28;20041;-72
2022/06/23 12:07:11;;;;;;;3.72;1.88;;;32.70;97.00;;;;;;5073260;28;20045;-72
2022/06/23 12:10:15;;;;;;;3.00;1.73;;;32.90;97.20;;;;;;5073042;28;20533;-71
2022/06/23 12:12:44;;;;;;;4.43;1.80;;;33.20;97.10;;;;;;5072622;28;21039;-71
2022/06/23 12:15:13;;;;;;;5.88;2.13;;;33.30;96.60;;;;;;5072053;28;20048;-70
2022/06/23 12:17:47;;;;;;;4.47;2.10;;;33.50;96.60;;;;;;5072733;28;20058;-72
2022/06/23 12:20:23;;;;;;;3.97;1.90;;;33.70;96.90;;;;;;5072895;28;20048;-72
2022/06/23 12:22:58;;;;;;;5.80;1.73;;;33.80;97.00;;;;;;5072900;28;20502;-70
2022/06/23 12:25:47;;;;;;;9.48;1.80;;;34.00;96.90;;;;;;5072875;28;20045;-72
2022/06/23 12:28:18;;;;;;;2.58;1.60;;;34.20;96.90;;;;;;5073194;28;20047;-71
2022/06/23 12:31:11;;;;;;;3.63;1.60;;;34.50;96.80;;;;;;5072745;28;20044;-71
2022/06/23 12:34:01;;;;;;;3.80;1.80;;;34.70;96.80;;;;;;5074946;28;20454;-73
2022/06/23 12:37:03;;;;;;;3.50;1.60;;;34.90;96.20;;;;;;5075607;28;20052;-73
2022/06/23 12:39:59;;;;;;;6.10;1.77;;;34.30;95.50;;;;;;5071008;28;20048;-70
2022/06/23 12:42:40;;;;;;;2.80;1.73;;;34.30;96.40;;;;;;5076287;28;20041;-71
2022/06/23 12:45:30;;;;;;;5.60;1.73;;;34.60;96.10;;;;;;5076350;28;20087;-71
2022/06/23 12:48:15;;;;;;;5.25;1.63;;;34.50;95.40;;;;;;5076026;28;20071;-71
2022/06/23 12:51:22;;;;;;;2.70;1.50;;;34.70;95.50;;;;;;5076122;28;20056;-71
2022/06/23 12:53:54;;;;;;;3.55;1.52;;;34.70;95.70;;;;;;5053763;28;20136;-70
2022/06/23 12:56:47;;;;;;;4.18;1.65;;;35.00;95.00;;;;;;5037275;28;20059;-73
2022/06/23 12:59:15;;;;;;;7.28;2.20;;;34.90;95.80;;;;;;5068933;28;20052;-70
2022/06/23 13:02:00;;;;;;;2.53;1.63;;;35.00;95.40;;;;;;5075654;28;20115;-70
2022/06/23 13:04:40;;;;;;;4.90;1.55;;;35.30;95.60;;;;;;5075887;28;20052;-70
2022/06/23 13:07:12;;;;;;;3.20;2.03;;;35.30;95.10;;;;;;5075591;28;20395;-70
2022/06/23 13:10:01;;;;;;;4.43;1.50;;;35.30;95.00;;;;;;5075833;28;20040;-70
2022/06/23 13:12:52;;;;;;;5.40;1.88;;;35.20;95.00;;;;;;5075606;28;20075;-70
2022/06/23 13:15:39;;;;;;;4.43;1.55;;;35.00;95.30;;;;;;5091427;28;20048;-70
2022/06/23 13:18:19;;;;;;;3.58;1.52;;;35.20;95.10;;;;;;5074812;28;20499;-70
2022/06/23 13:20:51;;;;;;;2.47;1.70;;;35.50;95.70;;;;;;5075449;28;20067;-70
2022/06/23 13:23:21;;;;;;;1.98;1.60;;;35.30;94.50;;;;;;5075503;28;20050;-70
2022/06/23 13:25:54;;;;;;;3.65;1.63;;;35.20;95.00;;;;;;5057625;28;20063;-71
2022/06/23 13:28:36;;;;;;;2.65;1.65;;;35.30;95.30;;;;;;5075288;28;20053;-71
2022/06/23 13:31:28;;;;;;;3.83;1.75;;;35.70;95.00;;;;;;5075097;28;20075;-70
2022/06/23 13:33:58;;;;;;;2.63;1.98;;;36.00;95.00;;;;;;5069905;28;20068;-66
2022/06/23 13:36:44;;;;;;;2.63;1.65;;;35.20;94.50;;;;;;5072585;28;20119;-70
2022/06/23 13:39:41;;;;;;;3.67;1.75;;;35.10;95.40;;;;;;5074078;28;20054;-70
2022/06/23 13:42:27;;;;;;;2.72;1.60;;;35.20;94.40;;;;;;5052809;28;20049;-70
2022/06/23 13:45:02;;;;;;;3.17;1.92;;;35.50;95.40;;;;;;5054978;28;20049;-69
2022/06/23 13:47:39;;;;;;;4.35;1.77;;;35.40;94.50;;;;;;5054006;28;20057;-72
2022/06/23 13:50:23;;;;;;;5.70;1.95;;;35.30;94.50;;;;;;5053425;28;20056;-71
2022/06/23 13:53:07;;;;;;;4.25;1.73;;;35.40;94.70;;;;;;5053487;28;20076;-72
2022/06/23 13:55:54;;;;;;;4.18;1.70;;;35.80;94.50;;;;;;5054993;28;20480;-71